Time;durP1;ratioP1;P1;durP2;ratioP2;P2;SDS_P1;SDS_P2;PMS_P1;PMS_P2;Temp;Humidity;BMP_temperature;BMP_pressure;BME280_temperature;BME280_humidity;BME280_pressure;Samples;Min_cycle;Max_cycle;Signal;HPM_P1;HPM_P2
2023/06/18 00:01:50;;;;;;;17.13;10.10;;;17.80;23.60;;;;;;5032327;28;20379;-69
2023/06/18 00:04:15;;;;;;;17.88;10.70;;;17.80;23.90;;;;;;5035416;28;20386;-71
2023/06/18 00:06:41;;;;;;;13.40;9.20;;;17.80;23.70;;;;;;5035098;28;20441;-70
2023/06/18 00:09:07;;;;;;;16.77;10.20;;;17.70;23.80;;;;;;5032651;28;20425;-70
2023/06/18 00:11:33;;;;;;;19.13;11.48;;;17.60;24.30;;;;;;5031767;28;20447;-70
2023/06/18 00:13:58;;;;;;;17.88;10.55;;;17.60;25.00;;;;;;5032555;28;20479;-71
2023/06/18 00:16:24;;;;;;;16.40;10.63;;;17.50;25.20;;;;;;5030906;28;20410;-70
2023/06/18 00:18:50;;;;;;;16.13;10.15;;;17.40;25.50;;;;;;5031445;28;20482;-69
2023/06/18 00:21:15;;;;;;;18.77;10.47;;;17.30;26.10;;;;;;5032433;28;20398;-70
2023/06/18 00:23:41;;;;;;;13.60;9.60;;;17.30;26.50;;;;;;5032406;28;20935;-70
2023/06/18 00:26:06;;;;;;;16.60;10.07;;;17.30;26.50;;;;;;5032336;28;20394;-71
2023/06/18 00:28:32;;;;;;;16.60;9.13;;;17.20;26.60;;;;;;5032590;28;20474;-71
2023/06/18 00:30:57;;;;;;;16.73;9.33;;;17.20;26.70;;;;;;5032082;28;20390;-70
2023/06/18 00:33:24;;;;;;;11.03;8.63;;;17.30;26.70;;;;;;5032424;28;20437;-70
2023/06/18 00:35:57;;;;;;;16.75;10.10;;;17.30;26.50;;;;;;5031632;28;20383;-70
2023/06/18 00:38:24;;;;;;;13.80;9.80;;;17.30;26.40;;;;;;5031791;28;20387;-70
2023/06/18 00:40:50;;;;;;;18.63;9.93;;;17.40;26.60;;;;;;5031613;28;20433;-73
2023/06/18 00:43:16;;;;;;;17.87;10.50;;;17.30;26.70;;;;;;5031508;28;20416;-70
2023/06/18 00:45:44;;;;;;;13.20;9.53;;;17.30;26.80;;;;;;5030421;28;20470;-71
2023/06/18 00:48:09;;;;;;;13.50;9.65;;;17.20;27.20;;;;;;5031957;28;20413;-70
2023/06/18 00:50:35;;;;;;;17.73;9.88;;;17.10;27.50;;;;;;5031389;28;20395;-70
2023/06/18 00:53:01;;;;;;;13.07;9.77;;;17.00;28.10;;;;;;5031543;28;20378;-69
2023/06/18 00:55:28;;;;;;;15.30;9.95;;;17.10;28.90;;;;;;5031612;28;20453;-70
2023/06/18 00:57:59;;;;;;;17.88;11.00;;;17.20;28.30;;;;;;5031110;28;20741;-70
2023/06/18 01:00:28;;;;;;;16.27;10.45;;;17.20;28.70;;;;;;5031280;28;20387;-69
2023/06/18 01:02:55;;;;;;;16.90;10.40;;;17.30;28.70;;;;;;5030702;28;20858;-69
2023/06/18 01:05:21;;;;;;;15.43;11.10;;;17.20;29.10;;;;;;5031192;28;20391;-71
2023/06/18 01:07:47;;;;;;;20.00;11.80;;;17.20;29.40;;;;;;5031112;28;20887;-70
2023/06/18 01:10:14;;;;;;;14.82;10.20;;;17.20;29.50;;;;;;5030946;28;20482;-70
2023/06/18 01:12:42;;;;;;;18.17;11.02;;;17.10;30.10;;;;;;5030285;28;20410;-70
2023/06/18 01:15:10;;;;;;;19.45;11.00;;;17.10;29.90;;;;;;5030917;28;20383;-72
2023/06/18 01:17:37;;;;;;;19.17;11.98;;;17.00;30.20;;;;;;5031061;28;20403;-69
2023/06/18 01:20:09;;;;;;;19.60;11.52;;;17.00;30.70;;;;;;5031553;28;20388;-70
2023/06/18 01:22:37;;;;;;;19.00;12.00;;;17.00;31.10;;;;;;5030943;28;20471;-69
2023/06/18 01:25:05;;;;;;;18.30;10.80;;;17.00;31.20;;;;;;5032227;28;20437;-69
2023/06/18 01:27:40;;;;;;;16.92;10.55;;;17.10;30.80;;;;;;5031212;28;20383;-70
2023/06/18 01:30:10;;;;;;;17.67;11.82;;;17.20;29.90;;;;;;5033863;28;20894;-69
2023/06/18 01:32:38;;;;;;;25.60;11.85;;;17.20;29.10;;;;;;5034597;28;20398;-71
2023/06/18 01:35:05;;;;;;;17.05;10.75;;;17.20;29.00;;;;;;5034869;28;20464;-70
2023/06/18 01:37:35;;;;;;;16.52;11.10;;;17.10;29.20;;;;;;5035629;28;20410;-71
2023/06/18 01:40:10;;;;;;;15.52;10.57;;;17.10;28.90;;;;;;5035169;28;20419;-71
2023/06/18 01:42:39;;;;;;;16.80;11.10;;;17.00;29.10;;;;;;5033930;28;20410;-70
2023/06/18 01:45:21;;;;;;;15.65;10.23;;;16.90;29.10;;;;;;5034605;28;20391;-70
2023/06/18 01:47:48;;;;;;;18.03;11.60;;;16.90;29.10;;;;;;5035527;28;20473;-69
2023/06/18 01:50:17;;;;;;;16.48;10.40;;;17.00;28.60;;;;;;5034858;28;20383;-68
2023/06/18 01:52:45;;;;;;;15.45;10.40;;;17.00;27.80;;;;;;5033931;28;20379;-71
2023/06/18 01:55:12;;;;;;;14.70;10.30;;;17.00;27.30;;;;;;5034778;28;20932;-70
2023/06/18 01:57:38;;;;;;;14.13;10.45;;;17.00;27.40;;;;;;5034556;28;20418;-69
2023/06/18 02:00:06;;;;;;;15.10;10.15;;;17.00;27.30;;;;;;5034927;28;20383;-70
2023/06/18 02:02:31;;;;;;;16.05;10.35;;;17.00;27.40;;;;;;5034793;28;20395;-69
2023/06/18 02:04:57;;;;;;;15.63;9.70;;;17.00;27.30;;;;;;5034335;28;20436;-71
2023/06/18 02:07:22;;;;;;;15.82;10.20;;;17.10;27.20;;;;;;5034512;28;20426;-70
2023/06/18 02:09:48;;;;;;;15.73;10.50;;;17.20;26.70;;;;;;5034925;28;20884;-72
2023/06/18 02:12:13;;;;;;;14.30;10.40;;;17.10;26.60;;;;;;5035044;28;20767;-69
2023/06/18 02:14:39;;;;;;;15.68;10.60;;;17.00;26.70;;;;;;5034868;28;20383;-72
2023/06/18 02:17:05;;;;;;;13.73;10.75;;;17.10;26.40;;;;;;5033973;28;20701;-70
2023/06/18 02:19:31;;;;;;;13.63;10.38;;;17.00;26.30;;;;;;5034073;28;20394;-71
2023/06/18 02:21:57;;;;;;;17.40;11.15;;;17.00;26.60;;;;;;5034106;28;20379;-71
2023/06/18 02:24:23;;;;;;;12.05;9.73;;;16.90;26.50;;;;;;5034724;28;20454;-70
2023/06/18 02:26:48;;;;;;;17.48;10.90;;;16.90;26.50;;;;;;5034387;28;20417;-70
2023/06/18 02:29:14;;;;;;;16.17;10.27;;;16.90;26.40;;;;;;5034504;28;20395;-70
2023/06/18 02:31:39;;;;;;;13.60;10.20;;;16.90;26.20;;;;;;5033950;28;20383;-71
2023/06/18 02:34:05;;;;;;;17.07;10.30;;;17.00;26.20;;;;;;5035368;28;20406;-69
2023/06/18 02:36:32;;;;;;;14.70;10.23;;;17.00;26.10;;;;;;5034504;28;20411;-70
2023/06/18 02:38:58;;;;;;;17.00;11.32;;;17.20;25.70;;;;;;5035226;28;20395;-69
2023/06/18 02:41:23;;;;;;;12.90;9.95;;;17.20;25.50;;;;;;5033702;28;20852;-69
2023/06/18 02:43:49;;;;;;;15.17;10.30;;;17.10;25.80;;;;;;5034645;28;20394;-69
2023/06/18 02:46:16;;;;;;;18.15;11.30;;;17.00;26.10;;;;;;5034690;28;20434;-71
2023/06/18 02:48:41;;;;;;;14.15;10.43;;;17.00;26.00;;;;;;5038183;28;20884;-70
2023/06/18 02:51:07;;;;;;;17.48;11.63;;;17.00;26.20;;;;;;5046945;28;20401;-70
2023/06/18 02:53:32;;;;;;;16.27;11.03;;;17.00;26.10;;;;;;5053684;28;20398;-72
2023/06/18 02:55:58;;;;;;;18.23;10.47;;;17.00;26.10;;;;;;5048505;28;20394;-72
2023/06/18 02:58:27;;;;;;;21.98;13.43;;;17.00;26.40;;;;;;5045069;28;20405;-72
2023/06/18 03:00:55;;;;;;;28.23;17.50;;;16.90;27.50;;;;;;5052547;28;20390;-71
2023/06/18 03:03:21;;;;;;;30.58;18.65;;;17.00;26.90;;;;;;5053236;28;20393;-71
2023/06/18 03:05:47;;;;;;;22.60;14.13;;;17.00;26.60;;;;;;5054235;28;20856;-69
2023/06/18 03:08:13;;;;;;;19.55;12.30;;;17.10;26.60;;;;;;5053876;28;20393;-72
2023/06/18 03:10:40;;;;;;;21.25;11.73;;;17.10;26.10;;;;;;5053910;28;20837;-75
2023/06/18 03:13:06;;;;;;;17.40;10.82;;;17.20;25.80;;;;;;5039877;28;20807;-77
2023/06/18 03:15:31;;;;;;;15.20;10.63;;;17.10;25.80;;;;;;5034352;28;20387;-75
2023/06/18 03:17:57;;;;;;;17.87;11.17;;;17.20;25.10;;;;;;5034104;28;20410;-74
2023/06/18 03:20:23;;;;;;;14.90;10.95;;;17.20;25.10;;;;;;5033575;28;20387;-75
2023/06/18 03:22:49;;;;;;;17.60;10.70;;;17.20;25.50;;;;;;5033660;28;20445;-76
2023/06/18 03:25:15;;;;;;;17.47;10.97;;;17.20;25.60;;;;;;5033288;28;20788;-75
2023/06/18 03:27:40;;;;;;;13.80;10.93;;;17.10;25.80;;;;;;5033594;28;20391;-76
2023/06/18 03:30:06;;;;;;;18.20;10.90;;;17.10;26.00;;;;;;5033924;28;20474;-76
2023/06/18 03:32:32;;;;;;;19.52;11.20;;;17.10;26.00;;;;;;5033616;28;20474;-75
2023/06/18 03:34:58;;;;;;;17.00;10.70;;;17.10;26.00;;;;;;5034169;28;20823;-75
2023/06/18 03:37:23;;;;;;;17.17;11.27;;;17.10;26.10;;;;;;5032471;28;20399;-76
2023/06/18 03:39:49;;;;;;;16.30;10.93;;;17.10;26.30;;;;;;5033365;28;20491;-75
2023/06/18 03:42:15;;;;;;;17.00;11.15;;;17.10;26.20;;;;;;5033801;28;20379;-76
2023/06/18 03:44:41;;;;;;;18.53;11.13;;;17.20;25.80;;;;;;5034114;28;20394;-76
2023/06/18 03:47:07;;;;;;;15.90;11.27;;;17.20;25.40;;;;;;5033650;28;20383;-75
2023/06/18 03:49:32;;;;;;;18.67;11.13;;;17.30;25.40;;;;;;5033975;28;20418;-75
2023/06/18 03:51:58;;;;;;;18.80;11.53;;;17.30;25.00;;;;;;5033542;28;20752;-75
2023/06/18 03:54:24;;;;;;;15.43;11.77;;;17.30;25.00;;;;;;5033910;28;20918;-75
2023/06/18 03:56:50;;;;;;;15.20;11.20;;;17.40;24.20;;;;;;5034331;28;20912;-75
2023/06/18 03:59:16;;;;;;;14.75;10.68;;;17.50;24.00;;;;;;5034388;28;20383;-75
2023/06/18 04:01:42;;;;;;;16.77;11.07;;;17.50;23.60;;;;;;5034147;28;20391;-75
2023/06/18 04:04:08;;;;;;;17.65;11.40;;;17.50;23.60;;;;;;5033588;28;20411;-76
2023/06/18 04:06:34;;;;;;;17.02;11.00;;;17.60;23.30;;;;;;5033763;28;20422;-74
2023/06/18 04:09:00;;;;;;;16.58;10.68;;;17.60;23.60;;;;;;5034231;28;20868;-76
2023/06/18 04:11:26;;;;;;;15.27;10.52;;;17.60;23.70;;;;;;5042519;28;20414;-75
2023/06/18 04:13:52;;;;;;;16.73;10.63;;;17.60;23.90;;;;;;5056761;28;20448;-75
2023/06/18 04:16:17;;;;;;;18.27;11.27;;;17.60;23.80;;;;;;5039355;28;20440;-75
2023/06/18 04:18:43;;;;;;;13.98;10.65;;;17.70;23.90;;;;;;5070255;28;20393;-76
2023/06/18 04:21:09;;;;;;;17.98;11.27;;;17.70;23.60;;;;;;5062235;28;20468;-75
2023/06/18 04:23:35;;;;;;;14.57;10.50;;;17.80;23.40;;;;;;5036011;28;20393;-75
2023/06/18 04:26:00;;;;;;;16.70;11.03;;;17.90;23.00;;;;;;5052681;28;20377;-75
2023/06/18 04:28:26;;;;;;;15.10;10.57;;;17.90;23.00;;;;;;5053096;28;20389;-74
2023/06/18 04:30:51;;;;;;;12.85;10.50;;;18.10;22.50;;;;;;5053113;28;20385;-76
2023/06/18 04:33:17;;;;;;;18.17;11.17;;;18.20;22.30;;;;;;5056742;28;20389;-75
2023/06/18 04:35:45;;;;;;;15.63;11.27;;;18.30;21.40;;;;;;5058319;28;20399;-76
2023/06/18 04:38:11;;;;;;;19.80;11.05;;;18.50;21.00;;;;;;5057834;28;20716;-76
2023/06/18 04:40:36;;;;;;;15.02;11.45;;;18.60;21.50;;;;;;5055710;28;20905;-75
2023/06/18 04:43:02;;;;;;;17.88;10.60;;;18.70;20.80;;;;;;5054829;28;20413;-75
2023/06/18 04:45:27;;;;;;;14.77;10.60;;;18.90;20.30;;;;;;5055250;28;20385;-76
2023/06/18 04:47:53;;;;;;;14.50;10.73;;;19.00;19.90;;;;;;5055991;28;20381;-74
2023/06/18 04:50:19;;;;;;;12.80;10.13;;;19.10;19.50;;;;;;5054454;28;20427;-75
2023/06/18 04:52:45;;;;;;;14.67;10.60;;;19.30;18.90;;;;;;5052676;28;20390;-75
2023/06/18 04:55:11;;;;;;;17.38;10.98;;;19.40;18.70;;;;;;5033426;28;20393;-75
2023/06/18 04:57:36;;;;;;;16.63;11.20;;;19.60;18.30;;;;;;5051272;28;20782;-75
2023/06/18 05:00:05;;;;;;;15.40;10.83;;;19.60;18.30;;;;;;5051468;28;20861;-75
2023/06/18 05:02:31;;;;;;;14.23;10.90;;;19.70;18.20;;;;;;5033343;28;20393;-75
2023/06/18 05:04:57;;;;;;;17.70;10.40;;;19.90;18.00;;;;;;5051746;28;20381;-76
2023/06/18 05:07:22;;;;;;;15.52;11.25;;;20.10;17.80;;;;;;5034542;28;20424;-75
2023/06/18 05:09:48;;;;;;;17.37;11.33;;;20.10;18.40;;;;;;5052051;28;20393;-75
2023/06/18 05:12:14;;;;;;;18.80;11.60;;;20.10;17.50;;;;;;5051564;28;20397;-75
2023/06/18 05:14:39;;;;;;;17.83;10.85;;;20.20;17.50;;;;;;5051301;28;20388;-74
2023/06/18 05:17:05;;;;;;;15.65;10.73;;;20.40;17.30;;;;;;5050725;28;20417;-75
2023/06/18 05:19:31;;;;;;;14.90;11.43;;;20.40;17.00;;;;;;5051088;28;20439;-75
2023/06/18 05:21:57;;;;;;;14.47;10.20;;;20.30;16.80;;;;;;5050944;28;20415;-74
2023/06/18 05:24:22;;;;;;;15.40;10.50;;;20.40;17.00;;;;;;5033690;28;20901;-75
2023/06/18 05:26:48;;;;;;;14.33;10.50;;;20.40;17.00;;;;;;5051464;28;20931;-75
2023/06/18 05:29:15;;;;;;;16.20;10.88;;;20.50;16.80;;;;;;5051204;28;20386;-74
2023/06/18 05:31:41;;;;;;;13.52;9.70;;;20.50;16.90;;;;;;5051067;28;20399;-76
2023/06/18 05:34:07;;;;;;;14.07;10.23;;;20.60;16.20;;;;;;5051270;28;20390;-75
2023/06/18 05:36:32;;;;;;;15.00;10.50;;;20.70;16.00;;;;;;5051018;28;20417;-75
2023/06/18 05:38:59;;;;;;;13.50;9.87;;;20.80;15.90;;;;;;5051010;28;20458;-75
2023/06/18 05:41:25;;;;;;;18.63;10.48;;;20.80;16.00;;;;;;5050713;28;20404;-76
2023/06/18 05:43:52;;;;;;;14.43;10.23;;;20.90;16.10;;;;;;5051289;28;20937;-76
2023/06/18 05:46:17;;;;;;;15.73;9.90;;;20.90;15.40;;;;;;5051047;28;20392;-76
2023/06/18 05:48:43;;;;;;;14.60;9.63;;;20.90;15.00;;;;;;5033030;28;20957;-76
2023/06/18 05:51:08;;;;;;;12.30;9.20;;;21.00;15.10;;;;;;5050300;28;20393;-76
2023/06/18 05:53:34;;;;;;;12.37;9.40;;;21.00;15.30;;;;;;5051224;28;20885;-75
2023/06/18 05:55:59;;;;;;;14.07;9.93;;;21.10;14.90;;;;;;5050596;28;20443;-75
2023/06/18 05:58:25;;;;;;;13.83;10.03;;;21.10;15.30;;;;;;5050765;28;20420;-74
2023/06/18 06:00:51;;;;;;;13.40;10.10;;;21.20;14.60;;;;;;5050419;28;20388;-75
2023/06/18 06:03:17;;;;;;;14.73;9.47;;;21.40;14.20;;;;;;5050856;28;20381;-74
2023/06/18 06:05:42;;;;;;;15.20;10.40;;;21.40;14.40;;;;;;5052398;28;20796;-76
2023/06/18 06:08:08;;;;;;;12.40;9.50;;;21.50;14.30;;;;;;5050617;28;20386;-76
2023/06/18 06:10:34;;;;;;;14.50;9.60;;;21.50;13.60;;;;;;5050404;28;20492;-75
2023/06/18 06:13:00;;;;;;;12.80;9.60;;;21.50;13.60;;;;;;5050589;28;20879;-76
2023/06/18 06:15:26;;;;;;;15.07;10.15;;;21.60;13.20;;;;;;5050962;28;20381;-75
2023/06/18 06:17:52;;;;;;;15.30;9.53;;;21.70;13.10;;;;;;5054582;28;20454;-75
2023/06/18 06:20:17;;;;;;;10.02;8.93;;;21.80;12.60;;;;;;5054358;28;20389;-75
2023/06/18 06:22:43;;;;;;;14.50;9.43;;;21.90;12.70;;;;;;5054254;28;20373;-75
2023/06/18 06:25:09;;;;;;;14.20;9.02;;;22.00;12.70;;;;;;5054014;28;20399;-76
2023/06/18 06:27:35;;;;;;;11.70;9.13;;;22.20;13.20;;;;;;5054302;28;20781;-76
2023/06/18 06:30:01;;;;;;;14.30;10.07;;;22.40;11.50;;;;;;5054231;28;20389;-76
2023/06/18 06:32:28;;;;;;;19.98;9.73;;;22.60;11.70;;;;;;5053878;28;20393;-75
2023/06/18 06:34:53;;;;;;;10.17;8.30;;;22.70;11.70;;;;;;5053983;28;20421;-76
2023/06/18 06:37:19;;;;;;;11.87;8.60;;;22.90;11.90;;;;;;5053721;28;20618;-75
2023/06/18 06:39:44;;;;;;;12.73;9.82;;;23.20;11.10;;;;;;5053863;28;20378;-76
2023/06/18 06:42:10;;;;;;;12.00;9.57;;;23.20;11.20;;;;;;5035492;28;20428;-76
2023/06/18 06:44:36;;;;;;;12.98;9.27;;;23.30;10.40;;;;;;5054008;28;20389;-76
2023/06/18 06:47:02;;;;;;;10.73;9.23;;;23.50;10.10;;;;;;5053453;28;20389;-75
2023/06/18 06:49:28;;;;;;;10.38;8.40;;;23.70;9.80;;;;;;5053446;28;20389;-74
2023/06/18 06:51:55;;;;;;;11.83;9.53;;;23.70;9.50;;;;;;5053287;28;20841;-75
2023/06/18 06:54:21;;;;;;;12.80;9.00;;;23.80;9.50;;;;;;5053662;28;20377;-76
2023/06/18 06:56:46;;;;;;;10.40;8.00;;;23.90;9.80;;;;;;5053348;28;20478;-76
2023/06/18 06:59:12;;;;;;;13.20;8.80;;;24.00;9.70;;;;;;5054957;28;20468;-76
2023/06/18 07:01:39;;;;;;;12.70;8.80;;;24.10;9.60;;;;;;5059126;28;20386;-76
2023/06/18 07:04:05;;;;;;;10.70;8.18;;;24.40;9.20;;;;;;5057083;28;20385;-76
2023/06/18 07:06:30;;;;;;;11.38;9.10;;;24.50;9.40;;;;;;5053578;28;20389;-75
2023/06/18 07:08:57;;;;;;;10.93;8.53;;;24.60;8.60;;;;;;5053575;28;20476;-75
2023/06/18 07:11:23;;;;;;;13.27;8.75;;;24.40;9.00;;;;;;5053347;28;20400;-76
2023/06/18 07:13:48;;;;;;;11.98;8.70;;;24.40;8.90;;;;;;5053535;28;20469;-75
2023/06/18 07:16:14;;;;;;;12.17;8.57;;;24.60;9.20;;;;;;5067519;28;20389;-75
2023/06/18 07:18:40;;;;;;;12.23;9.38;;;24.90;8.70;;;;;;5051150;28;20417;-75
2023/06/18 07:21:05;;;;;;;12.07;8.73;;;25.10;8.00;;;;;;5060865;28;20389;-75
2023/06/18 07:23:31;;;;;;;10.52;8.57;;;25.40;7.60;;;;;;5058001;28;20441;-76
2023/06/18 07:25:56;;;;;;;10.10;8.43;;;25.70;6.40;;;;;;5057995;28;20383;-75
2023/06/18 07:28:22;;;;;;;8.90;7.60;;;25.90;6.20;;;;;;5057081;28;20779;-73
2023/06/18 07:30:47;;;;;;;12.45;8.48;;;25.90;5.60;;;;;;5055738;28;20397;-76
2023/06/18 07:33:13;;;;;;;9.30;8.10;;;25.90;5.70;;;;;;5055215;28;20385;-76
2023/06/18 07:35:39;;;;;;;13.23;8.50;;;26.10;5.90;;;;;;5055088;28;20389;-76
2023/06/18 07:38:05;;;;;;;13.67;8.20;;;26.20;6.10;;;;;;5064526;28;20435;-76
2023/06/18 07:40:33;;;;;;;10.93;8.10;;;26.40;5.70;;;;;;5067666;28;20398;-76
2023/06/18 07:42:59;;;;;;;10.00;8.05;;;26.60;5.40;;;;;;5056307;28;20746;-76
2023/06/18 07:45:25;;;;;;;12.63;9.10;;;26.60;5.00;;;;;;5053299;28;20821;-77
2023/06/18 07:47:51;;;;;;;13.88;8.50;;;26.60;5.10;;;;;;5052628;28;20393;-76
2023/06/18 07:50:16;;;;;;;11.30;8.40;;;26.80;5.10;;;;;;5052571;28;20389;-77
2023/06/18 07:52:42;;;;;;;10.60;8.50;;;27.20;4.80;;;;;;5052954;28;20451;-75
2023/06/18 07:55:08;;;;;;;12.13;8.87;;;27.10;4.00;;;;;;5053387;28;20390;-76
2023/06/18 07:57:33;;;;;;;10.98;8.48;;;27.10;4.30;;;;;;5052430;28;20452;-76
2023/06/18 07:59:59;;;;;;;11.27;8.27;;;27.10;4.30;;;;;;5052176;28;20378;-76
2023/06/18 08:02:24;;;;;;;11.05;7.85;;;27.20;3.60;;;;;;5051813;28;20396;-76
2023/06/18 08:04:50;;;;;;;9.67;7.70;;;27.30;3.60;;;;;;5052061;28;20456;-76
2023/06/18 08:07:15;;;;;;;9.50;7.70;;;27.50;3.10;;;;;;5052901;28;20382;-76
2023/06/18 08:09:41;;;;;;;9.77;8.20;;;27.50;2.70;;;;;;5052123;28;20943;-76
2023/06/18 08:12:07;;;;;;;11.03;8.10;;;27.60;2.80;;;;;;5051792;28;20412;-76
2023/06/18 08:14:33;;;;;;;9.73;8.07;;;27.70;2.50;;;;;;5051998;28;20429;-76
2023/06/18 08:16:58;;;;;;;10.70;7.90;;;27.70;2.30;;;;;;5052386;28;20441;-76
2023/06/18 08:19:24;;;;;;;10.07;7.80;;;27.70;2.20;;;;;;5051753;28;20454;-76
2023/06/18 08:21:49;;;;;;;10.43;8.40;;;27.70;2.70;;;;;;5051590;28;20388;-76
2023/06/18 08:24:15;;;;;;;12.15;8.93;;;27.90;2.80;;;;;;5052357;28;20424;-76
2023/06/18 08:26:41;;;;;;;9.55;7.47;;;28.00;2.60;;;;;;5051648;28;20446;-76
2023/06/18 08:29:06;;;;;;;10.10;7.73;;;28.40;1.70;;;;;;5051761;28;20447;-76
2023/06/18 08:31:32;;;;;;;14.35;7.95;;;28.50;1.70;;;;;;5051372;28;20393;-77
2023/06/18 08:33:57;;;;;;;10.90;7.70;;;28.50;1.40;;;;;;5052433;28;20888;-76
2023/06/18 08:36:23;;;;;;;9.47;8.33;;;28.70;1.50;;;;;;5052760;28;20409;-75
2023/06/18 08:38:49;;;;;;;10.02;7.90;;;28.90;1.50;;;;;;5051097;28;20389;-76
2023/06/18 08:41:15;;;;;;;9.65;7.78;;;29.30;1.00;;;;;;5051660;28;20389;-77
2023/06/18 08:43:41;;;;;;;9.75;7.95;;;29.70;1.00;;;;;;5052006;28;20382;-75
2023/06/18 08:46:12;;;;;;;9.30;7.80;;;29.80;1.00;;;;;;5033478;28;20386;-76
2023/06/18 08:49:05;;;;;;;11.60;7.85;;;29.90;1.00;;;;;;5033950;28;20404;-76
2023/06/18 08:51:31;;;;;;;9.85;7.18;;;30.20;1.00;;;;;;5048006;28;20386;-77
2023/06/18 08:54:17;;;;;;;9.93;6.90;;;30.30;1.00;;;;;;5051517;28;20381;-75
2023/06/18 08:56:45;;;;;;;8.40;7.10;;;30.50;1.00;;;;;;5051321;28;20813;-76
2023/06/18 08:59:13;;;;;;;8.90;7.18;;;30.70;1.00;;;;;;5050829;28;20484;-75
2023/06/18 09:01:42;;;;;;;7.77;7.07;;;30.80;1.00;;;;;;5051426;28;20878;-76
2023/06/18 09:04:09;;;;;;;8.77;6.80;;;31.20;1.00;;;;;;5051033;28;20384;-76
2023/06/18 09:06:35;;;;;;;10.18;7.72;;;31.20;1.00;;;;;;5051252;28;20470;-77
2023/06/18 09:09:01;;;;;;;8.17;6.83;;;30.90;1.00;;;;;;5051832;28;20656;-76
2023/06/18 09:11:27;;;;;;;9.80;7.55;;;30.70;1.00;;;;;;5065701;22;20495;-74
2023/06/18 09:13:53;;;;;;;10.13;7.10;;;31.00;1.00;;;;;;5050462;28;20460;-74
2023/06/18 09:16:19;;;;;;;8.00;6.78;;;30.90;1.00;;;;;;5052246;28;20369;-75
2023/06/18 09:18:45;;;;;;;10.00;7.00;;;30.60;1.00;;;;;;5052566;28;20917;-74
2023/06/18 09:21:38;;;;;;;8.43;7.22;;;30.40;1.00;;;;;;5050058;28;20377;-74
2023/06/18 09:24:20;;;;;;;9.15;6.72;;;30.00;1.00;;;;;;5050301;28;20453;-75
2023/06/18 09:26:47;;;;;;;9.50;7.03;;;29.90;1.00;;;;;;5050314;28;20746;-75
2023/06/18 09:29:13;;;;;;;9.40;6.43;;;30.00;1.00;;;;;;5050067;28;20378;-76
2023/06/18 09:31:47;;;;;;;11.90;7.70;;;30.20;1.00;;;;;;5049731;28;20385;-76
2023/06/18 09:34:17;;;;;;;10.90;7.90;;;30.20;1.00;;;;;;5050034;28;20436;-75
2023/06/18 09:36:45;;;;;;;10.68;7.50;;;30.20;1.00;;;;;;5049899;28;20757;-74
2023/06/18 09:39:14;;;;;;;12.23;9.10;;;30.00;1.00;;;;;;5050121;28;20960;-74
2023/06/18 09:41:40;;;;;;;13.40;9.13;;;29.70;1.00;;;;;;5049701;28;20461;-74
2023/06/18 09:44:07;;;;;;;12.93;8.80;;;29.30;1.00;;;;;;5050349;28;20416;-74
2023/06/18 09:46:33;;;;;;;13.13;8.70;;;28.90;1.00;;;;;;5050575;28;20381;-75
2023/06/18 09:49:00;;;;;;;14.32;8.95;;;29.10;1.00;;;;;;5050120;28;20418;-75
2023/06/18 09:51:26;;;;;;;12.10;8.48;;;29.30;1.00;;;;;;5035431;28;20389;-75
2023/06/18 09:53:56;;;;;;;13.38;8.77;;;29.60;1.00;;;;;;5053737;28;20409;-74
2023/06/18 09:56:21;;;;;;;10.18;8.10;;;29.90;1.00;;;;;;5053561;28;20417;-75
2023/06/18 09:58:49;;;;;;;10.37;7.80;;;30.10;1.00;;;;;;5053569;28;20440;-75
2023/06/18 10:01:16;;;;;;;14.95;8.40;;;30.00;1.00;;;;;;5053692;28;20378;-75
2023/06/18 10:03:43;;;;;;;14.95;8.52;;;29.90;1.00;;;;;;5053991;28;20392;-74
2023/06/18 10:06:13;;;;;;;10.80;7.82;;;29.80;1.00;;;;;;5053643;28;20377;-75
2023/06/18 10:08:42;;;;;;;8.40;7.03;;;29.70;1.00;;;;;;5053296;28;20373;-75
2023/06/18 10:11:09;;;;;;;13.15;8.30;;;29.70;1.00;;;;;;5053104;28;20411;-74
2023/06/18 10:13:44;;;;;;;15.20;8.10;;;29.60;1.00;;;;;;5053136;28;20392;-75
2023/06/18 10:16:12;;;;;;;10.77;7.60;;;29.40;1.00;;;;;;5035241;28;20424;-74
2023/06/18 10:18:44;;;;;;;13.82;7.72;;;29.40;1.00;;;;;;5053268;28;20773;-74
2023/06/18 10:21:09;;;;;;;14.40;8.40;;;29.20;1.00;;;;;;5053101;28;20861;-74
2023/06/18 10:23:35;;;;;;;15.90;8.40;;;29.20;1.00;;;;;;5053829;28;20394;-75
2023/06/18 10:26:01;;;;;;;12.50;9.03;;;28.70;1.00;;;;;;5053498;28;20381;-75
2023/06/18 10:28:29;;;;;;;12.40;8.25;;;28.60;1.00;;;;;;5053144;28;20749;-75
2023/06/18 10:30:55;;;;;;;13.38;8.98;;;28.70;1.00;;;;;;5053297;28;20377;-76
2023/06/18 10:33:21;;;;;;;10.75;8.07;;;28.80;1.00;;;;;;5053156;28;20720;-75
2023/06/18 10:35:47;;;;;;;10.13;8.02;;;28.80;1.00;;;;;;5053005;28;20386;-76
2023/06/18 10:38:13;;;;;;;10.32;7.57;;;29.00;1.00;;;;;;5052477;28;20437;-75
2023/06/18 10:40:39;;;;;;;9.20;6.97;;;29.10;1.00;;;;;;5053001;28;20925;-75
2023/06/18 10:43:09;;;;;;;12.73;7.00;;;29.20;1.00;;;;;;5052857;28;20382;-75
2023/06/18 10:45:35;;;;;;;10.80;7.15;;;29.30;1.00;;;;;;5052852;28;20386;-75
2023/06/18 10:48:22;;;;;;;8.52;6.97;;;29.40;1.00;;;;;;5052998;28;20439;-75
2023/06/18 10:51:10;;;;;;;8.60;6.40;;;29.30;1.00;;;;;;5052699;28;20776;-73
2023/06/18 10:53:36;;;;;;;7.55;5.30;;;29.30;1.00;;;;;;5052693;28;20914;-75
2023/06/18 10:56:01;;;;;;;7.70;6.10;;;29.20;1.00;;;;;;5052696;28;20389;-73
2023/06/18 10:58:34;;;;;;;7.40;6.13;;;29.30;1.00;;;;;;5052548;28;20450;-75
2023/06/18 11:01:00;;;;;;;7.10;6.40;;;29.40;1.00;;;;;;5051487;28;20386;-74
2023/06/18 11:03:33;;;;;;;7.40;6.10;;;29.80;1.00;;;;;;5052244;28;20393;-74
2023/06/18 11:06:02;;;;;;;9.73;7.28;;;30.20;1.00;;;;;;5052535;28;20378;-75
2023/06/18 11:08:33;;;;;;;10.57;7.10;;;30.40;1.00;;;;;;5053308;28;20393;-76
2023/06/18 11:11:07;;;;;;;13.80;6.60;;;30.50;1.00;;;;;;5052574;28;20397;-74
2023/06/18 11:13:37;;;;;;;8.68;6.60;;;30.90;1.00;;;;;;5052357;28;20419;-74
2023/06/18 11:16:06;;;;;;;10.20;6.72;;;31.30;1.00;;;;;;5052198;28;20385;-75
2023/06/18 11:18:32;;;;;;;7.13;6.43;;;31.80;1.00;;;;;;5051888;28;20417;-75
2023/06/18 11:20:59;;;;;;;11.70;7.60;;;32.10;1.00;;;;;;5051858;28;20738;-74
2023/06/18 11:23:26;;;;;;;10.15;6.35;;;32.50;1.00;;;;;;5052102;28;20378;-75
2023/06/18 11:25:52;;;;;;;7.65;6.18;;;32.50;1.00;;;;;;5052016;28;20386;-75
2023/06/18 11:28:19;;;;;;;9.32;6.70;;;33.10;1.00;;;;;;5052140;28;20389;-75
2023/06/18 11:30:51;;;;;;;9.13;6.20;;;33.60;1.00;;;;;;5051687;28;20480;-74
2023/06/18 11:33:25;;;;;;;8.48;6.65;;;33.90;1.00;;;;;;5051619;28;20389;-75
2023/06/18 11:35:52;;;;;;;8.63;6.70;;;33.60;1.00;;;;;;5051809;28;20405;-75
2023/06/18 11:38:22;;;;;;;7.00;5.68;;;33.40;1.00;;;;;;5051882;28;20459;-75
2023/06/18 11:40:51;;;;;;;6.65;5.95;;;33.70;1.00;;;;;;5051524;28;20548;-76
2023/06/18 11:43:18;;;;;;;6.60;6.00;;;33.60;1.00;;;;;;5051651;28;20857;-75
2023/06/18 11:45:48;;;;;;;6.78;6.07;;;33.60;1.00;;;;;;5051705;28;20405;-75
2023/06/18 11:48:16;;;;;;;9.38;6.45;;;33.60;1.00;;;;;;5051331;28;20385;-75
2023/06/18 11:50:42;;;;;;;9.18;6.80;;;33.00;1.00;;;;;;5051438;28;20388;-75
2023/06/18 11:53:07;;;;;;;7.80;6.00;;;33.20;1.00;;;;;;5051713;28;20829;-73
2023/06/18 11:55:36;;;;;;;8.65;7.00;;;33.10;1.00;;;;;;5052060;28;20750;-74
2023/06/18 11:58:02;;;;;;;8.13;6.35;;;33.40;1.00;;;;;;5034200;28;20405;-77
2023/06/18 12:00:28;;;;;;;7.95;5.78;;;33.70;1.00;;;;;;5051692;28;20731;-76
2023/06/18 12:02:54;;;;;;;6.50;5.88;;;33.80;1.00;;;;;;5051324;28;20428;-74
2023/06/18 12:05:20;;;;;;;6.90;5.80;;;34.00;1.00;;;;;;5051664;28;20386;-75
2023/06/18 12:07:45;;;;;;;7.25;5.70;;;33.60;1.00;;;;;;5051199;28;20777;-76
2023/06/18 12:10:13;;;;;;;6.30;5.40;;;33.30;1.00;;;;;;5051561;28;20393;-74
2023/06/18 12:12:47;;;;;;;8.20;6.13;;;33.20;1.00;;;;;;5051301;28;20424;-74
2023/06/18 12:15:36;;;;;;;7.75;6.10;;;33.40;1.00;;;;;;5052001;28;20394;-74
2023/06/18 12:18:18;;;;;;;8.15;5.90;;;33.40;1.00;;;;;;5037019;28;20409;-76
2023/06/18 12:20:44;;;;;;;8.40;6.00;;;33.30;1.00;;;;;;5058321;28;20888;-74
2023/06/18 12:23:13;;;;;;;7.85;6.53;;;33.40;1.00;;;;;;5042730;28;20385;-75
2023/06/18 12:25:39;;;;;;;8.37;6.90;;;33.40;1.00;;;;;;5056694;28;20385;-76
2023/06/18 12:28:06;;;;;;;6.90;6.20;;;33.50;1.00;;;;;;5051145;28;20719;-76
2023/06/18 12:30:37;;;;;;;7.93;5.90;;;33.40;1.00;;;;;;5051138;28;20393;-75
2023/06/18 12:33:05;;;;;;;8.55;6.00;;;33.20;1.00;;;;;;5051118;28;20457;-74
2023/06/18 12:35:31;;;;;;;6.90;6.22;;;33.30;1.00;;;;;;5051590;28;20387;-75
2023/06/18 12:38:03;;;;;;;8.47;6.57;;;33.20;1.00;;;;;;5051246;28;20408;-75
2023/06/18 12:40:29;;;;;;;7.00;6.30;;;33.10;1.00;;;;;;5033861;28;20389;-74